Time,TemperatureF,DewpointF,PressureIn,WindDirection,WindDirectionDegrees,WindSpeedMPH,WindSpeedGustMPH,Humidity,HourlyPrecipIn,Conditions,Clouds,dailyrainin,SoftwareType,DateUTC
2013-09-20 00:12:00,69.6,67.0,29.81,SSW,205,1.0,10.0,91,0.00,,,0.14,weatherlink.com 1.10,2013-09-20 04:12:00,
2013-09-20 00:27:00,69.6,67.0,29.82,SE,139,4.0,11.0,91,0.00,,,0.14,weatherlink.com 1.10,2013-09-20 04:27:00,
2013-09-20 00:42:00,69.7,67.0,29.80,SW,219,2.0,14.0,90,0.00,,,0.14,weatherlink.com 1.10,2013-09-20 04:42:00,
2013-09-20 00:57:00,69.5,67.0,29.81,SW,228,4.0,6.0,91,0.00,,,0.14,weatherlink.com 1.10,2013-09-20 04:57:00,
2013-09-20 01:12:00,68.5,67.0,29.80,South,171,6.0,12.0,93,0.17,,,0.31,weatherlink.com 1.10,2013-09-20 05:12:00,
2013-09-20 01:27:00,68.0,66.0,29.80,SW,222,7.0,12.0,94,0.20,,,0.00,weatherlink.com 1.10,2013-09-20 05:27:00,
2013-09-20 01:42:00,67.9,67.0,29.79,SW,225,11.0,14.0,95,0.21,,,0.01,weatherlink.com 1.10,2013-09-20 05:42:00,
2013-09-20 01:57:00,67.9,67.0,29.80,SW,225,5.0,14.0,95,0.32,,,0.12,weatherlink.com 1.10,2013-09-20 05:57:00,
2013-09-20 02:12:00,68.1,66.0,29.79,South,173,7.0,12.0,94,0.15,,,0.12,weatherlink.com 1.10,2013-09-20 06:12:00,
2013-09-20 02:27:00,68.2,66.0,29.80,SE,127,4.0,11.0,93,0.12,,,0.12,weatherlink.com 1.10,2013-09-20 06:27:00,
2013-09-20 02:42:00,68.3,66.0,29.79,WNW,298,4.0,9.0,93,0.09,,,0.12,weatherlink.com 1.10,2013-09-20 06:42:00,
2013-09-20 02:57:00,68.0,66.0,29.80,SW,225,4.0,6.0,94,0.16,,,0.28,weatherlink.com 1.10,2013-09-20 06:57:00,
2013-09-20 03:12:00,67.8,67.0,29.80,West,264,1.0,2.0,96,0.19,,,0.31,weatherlink.com 1.10,2013-09-20 07:12:00,
2013-09-20 03:27:00,67.7,67.0,29.78,SW,225,1.0,3.0,96,0.19,,,0.31,weatherlink.com 1.10,2013-09-20 07:27:00,
2013-09-20 03:42:00,67.4,66.0,29.77,SE,141,1.0,4.0,96,0.19,,,0.31,weatherlink.com 1.10,2013-09-20 07:42:00,
2013-09-20 03:57:00,67.6,67.0,29.76,SE,143,3.0,7.0,96,0.02,,,0.31,weatherlink.com 1.10,2013-09-20 07:57:00,
2013-09-20 04:12:00,67.6,67.0,29.76,SSE,158,4.0,6.0,96,0.00,,,0.31,weatherlink.com 1.10,2013-09-20 08:12:00,
2013-09-20 04:27:00,67.6,67.0,29.76,South,173,1.0,8.0,96,0.00,,,0.31,weatherlink.com 1.10,2013-09-20 08:27:00,
2013-09-20 04:42:00,67.7,67.0,29.76,SSE,150,6.0,10.0,96,0.00,,,0.31,weatherlink.com 1.10,2013-09-20 08:42:00,
2013-09-20 04:57:00,67.8,66.0,29.75,SSE,150,1.0,9.0,95,0.00,,,0.31,weatherlink.com 1.10,2013-09-20 08:57:00,
2013-09-20 05:13:00,67.9,67.0,29.75,SSE,152,6.0,10.0,96,0.00,,,0.31,weatherlink.com 1.10,2013-09-20 09:13:00,
2013-09-20 05:27:00,68.1,67.0,29.75,South,188,2.0,14.0,96,0.00,,,0.31,weatherlink.com 1.10,2013-09-20 09:27:00,
2013-09-20 05:42:00,68.1,67.0,29.74,SE,132,9.0,12.0,95,0.00,,,0.31,weatherlink.com 1.10,2013-09-20 09:42:00,
2013-09-20 05:58:00,68.1,67.0,29.74,SSE,149,5.0,10.0,96,0.00,,,0.31,weatherlink.com 1.10,2013-09-20 09:58:00,
2013-09-20 06:13:00,68.0,67.0,29.74,South,181,1.0,6.0,96,0.00,,,0.31,weatherlink.com 1.10,2013-09-20 10:13:00,
2013-09-20 06:28:00,67.9,67.0,29.74,WSW,239,1.0,7.0,96,0.00,,,0.31,weatherlink.com 1.10,2013-09-20 10:28:00,
2013-09-20 06:43:00,67.7,67.0,29.73,SSW,198,2.0,7.0,96,0.00,,,0.31,weatherlink.com 1.10,2013-09-20 10:43:00,
2013-09-20 06:58:00,67.7,67.0,29.73,SSE,160,3.0,6.0,97,0.00,,,0.31,weatherlink.com 1.10,2013-09-20 10:58:00,
2013-09-20 07:13:00,67.7,67.0,29.73,WSW,249,2.0,8.0,97,0.00,,,0.31,weatherlink.com 1.10,2013-09-20 11:13:00,
2013-09-20 07:28:00,68.1,67.0,29.72,South,184,4.0,6.0,97,0.00,,,0.31,weatherlink.com 1.10,2013-09-20 11:28:00,
2013-09-20 07:43:00,68.5,68.0,29.73,SW,226,3.0,6.0,97,0.00,,,0.31,weatherlink.com 1.10,2013-09-20 11:43:00,
2013-09-20 07:58:00,69.1,68.0,29.73,WSW,245,4.0,9.0,97,0.00,,,0.31,weatherlink.com 1.10,2013-09-20 11:58:00,
2013-09-20 08:13:00,69.6,69.0,29.73,SSW,203,6.0,7.0,97,0.00,,,0.31,weatherlink.com 1.10,2013-09-20 12:13:00,
2013-09-20 08:28:00,69.8,69.0,29.73,WSW,245,7.0,9.0,97,0.00,,,0.31,weatherlink.com 1.10,2013-09-20 12:28:00,
2013-09-20 08:43:00,70.0,69.0,29.74,SW,220,3.0,7.0,96,0.00,,,0.31,weatherlink.com 1.10,2013-09-20 12:43:00,
2013-09-20 08:58:00,70.2,69.0,29.74,SW,229,3.0,7.0,96,0.00,,,0.31,weatherlink.com 1.10,2013-09-20 12:58:00,
2013-09-20 09:13:00,70.4,69.0,29.74,SW,225,3.0,8.0,96,0.00,,,0.31,weatherlink.com 1.10,2013-09-20 13:13:00,
2013-09-20 09:28:00,70.8,70.0,29.73,SSE,162,5.0,8.0,96,0.00,,,0.31,weatherlink.com 1.10,2013-09-20 13:28:00,
2013-09-20 09:43:00,71.1,70.0,29.73,WSW,249,5.0,9.0,96,0.00,,,0.31,weatherlink.com 1.10,2013-09-20 13:43:00,
2013-09-20 09:58:00,71.5,70.0,29.73,WNW,295,3.0,8.0,96,0.00,,,0.31,weatherlink.com 1.10,2013-09-20 13:58:00,
2013-09-20 10:13:00,71.7,70.0,29.73,West,281,3.0,6.0,95,0.00,,,0.31,weatherlink.com 1.10,2013-09-20 14:13:00,
2013-09-20 10:28:00,71.9,71.0,29.73,SW,219,4.0,8.0,95,0.00,,,0.31,weatherlink.com 1.10,2013-09-20 14:28:00,
2013-09-20 10:43:00,72.2,71.0,29.73,WSW,250,4.0,9.0,95,0.00,,,0.31,weatherlink.com 1.10,2013-09-20 14:43:00,
2013-09-20 10:58:00,73.1,71.0,29.72,SW,217,2.0,8.0,94,0.00,,,0.31,weatherlink.com 1.10,2013-09-20 14:58:00,
2013-09-20 11:13:00,73.9,72.0,29.72,SW,224,3.0,10.0,92,0.00,,,0.31,weatherlink.com 1.10,2013-09-20 15:13:00,
2013-09-20 11:28:00,74.5,70.0,29.71,SSW,207,4.0,11.0,86,0.00,,,0.31,weatherlink.com 1.10,2013-09-20 15:28:00,
2013-09-20 11:43:00,75.9,70.0,29.71,WSW,249,4.0,14.0,82,0.00,,,0.31,weatherlink.com 1.10,2013-09-20 15:43:00,
2013-09-20 11:58:00,76.1,69.0,29.71,WSW,243,7.0,12.0,79,0.00,,,0.31,weatherlink.com 1.10,2013-09-20 15:58:00,
2013-09-20 12:13:00,76.0,69.0,29.70,WSW,250,3.0,14.0,79,0.00,,,0.31,weatherlink.com 1.10,2013-09-20 16:13:00,
2013-09-20 12:28:00,75.5,69.0,29.70,WSW,255,5.0,9.0,80,0.00,,,0.31,weatherlink.com 1.10,2013-09-20 16:28:00,
2013-09-20 12:43:00,75.4,68.0,29.70,SSW,203,6.0,13.0,78,0.00,,,0.31,weatherlink.com 1.10,2013-09-20 16:43:00,
2013-09-20 12:58:00,75.2,68.0,29.70,WSW,257,5.0,16.0,77,0.00,,,0.31,weatherlink.com 1.10,2013-09-20 16:58:00,
2013-09-20 13:13:00,74.6,67.0,29.70,SW,236,8.0,14.0,76,0.00,,,0.31,weatherlink.com 1.10,2013-09-20 17:13:00,
2013-09-20 13:28:00,74.1,66.0,29.70,WSW,243,12.0,14.0,77,0.00,,,0.31,weatherlink.com 1.10,2013-09-20 17:28:00,
2013-09-20 13:43:00,73.5,66.0,29.70,West,267,3.0,14.0,78,0.00,,,0.31,weatherlink.com 1.10,2013-09-20 17:43:00,
2013-09-20 13:58:00,73.1,66.0,29.70,SW,235,5.0,7.0,79,0.00,,,0.31,weatherlink.com 1.10,2013-09-20 17:58:00,
2013-09-20 14:13:00,72.8,66.0,29.69,WSW,242,7.0,11.0,79,0.00,,,0.31,weatherlink.com 1.10,2013-09-20 18:13:00,
2013-09-20 14:28:00,72.3,66.0,29.70,SW,226,5.0,10.0,80,0.00,,,0.31,weatherlink.com 1.10,2013-09-20 18:28:00,
2013-09-20 14:43:00,72.3,66.0,29.70,SW,235,5.0,12.0,81,0.00,,,0.31,weatherlink.com 1.10,2013-09-20 18:43:00,
2013-09-20 14:58:00,71.9,66.0,29.70,WSW,238,7.0,10.0,82,0.00,,,0.31,weatherlink.com 1.10,2013-09-20 18:58:00,
2013-09-20 15:13:00,71.7,66.0,29.69,WNW,283,4.0,11.0,82,0.00,,,0.31,weatherlink.com 1.10,2013-09-20 19:13:00,
2013-09-20 15:28:00,72.1,66.0,29.69,WSW,240,6.0,11.0,82,0.00,,,0.31,weatherlink.com 1.10,2013-09-20 19:28:00,
2013-09-20 15:43:00,72.5,66.0,29.69,SW,224,3.0,13.0,80,0.00,,,0.31,weatherlink.com 1.10,2013-09-20 19:43:00,
2013-09-20 15:59:00,72.4,66.0,29.69,WSW,243,5.0,9.0,81,0.00,,,0.31,weatherlink.com 1.10,2013-09-20 19:59:00,
2013-09-20 16:14:00,72.4,66.0,29.68,WSW,245,7.0,11.0,80,0.00,,,0.31,weatherlink.com 1.10,2013-09-20 20:14:00,
2013-09-20 16:29:00,72.5,66.0,29.68,SW,236,5.0,13.0,80,0.00,,,0.31,weatherlink.com 1.10,2013-09-20 20:29:00,
2013-09-20 16:44:00,72.6,67.0,29.68,SW,235,4.0,14.0,81,0.00,,,0.31,weatherlink.com 1.10,2013-09-20 20:44:00,
2013-09-20 16:59:00,72.2,66.0,29.68,SSW,203,9.0,11.0,81,0.00,,,0.31,weatherlink.com 1.10,2013-09-20 20:59:00,
2013-09-20 17:14:00,71.9,66.0,29.68,WSW,238,7.0,14.0,81,0.00,,,0.31,weatherlink.com 1.10,2013-09-20 21:14:00,
2013-09-20 17:29:00,71.8,66.0,29.67,West,260,4.0,10.0,82,0.00,,,0.31,weatherlink.com 1.10,2013-09-20 21:29:00,
2013-09-20 17:44:00,71.8,66.0,29.67,WSW,238,2.0,8.0,82,0.00,,,0.31,weatherlink.com 1.10,2013-09-20 21:44:00,
2013-09-20 17:59:00,71.6,66.0,29.67,WSW,238,4.0,9.0,83,0.00,,,0.31,weatherlink.com 1.10,2013-09-20 21:59:00,
2013-09-20 18:14:00,71.4,66.0,29.67,SW,228,8.0,13.0,83,0.00,,,0.31,weatherlink.com 1.10,2013-09-20 22:14:00,
2013-09-20 18:29:00,71.1,66.0,29.67,SW,232,2.0,7.0,84,0.00,,,0.31,weatherlink.com 1.10,2013-09-20 22:29:00,
2013-09-20 18:44:00,70.8,66.0,29.67,SW,222,2.0,6.0,85,0.00,,,0.31,weatherlink.com 1.10,2013-09-20 22:44:00,
2013-09-20 18:59:00,70.4,66.0,29.67,SW,233,4.0,6.0,86,0.00,,,0.31,weatherlink.com 1.10,2013-09-20 22:59:00,
2013-09-20 19:14:00,70.2,66.0,29.66,WSW,239,4.0,10.0,86,0.00,,,0.31,weatherlink.com 1.10,2013-09-20 23:14:00,
2013-09-20 19:29:00,69.8,66.0,29.66,West,262,5.0,10.0,86,0.00,,,0.31,weatherlink.com 1.10,2013-09-20 23:29:00,
2013-09-20 19:44:00,69.6,66.0,29.66,West,267,4.0,6.0,87,0.00,,,0.31,weatherlink.com 1.10,2013-09-20 23:44:00,
2013-09-20 19:59:00,69.2,66.0,29.66,SW,235,5.0,5.0,88,0.00,,,0.31,weatherlink.com 1.10,2013-09-20 23:59:00,
2013-09-20 20:14:00,69.0,66.0,29.66,WSW,238,2.0,4.0,89,0.00,,,0.31,weatherlink.com 1.10,2013-09-21 00:14:00,
2013-09-20 20:29:00,68.9,66.0,29.67,WSW,255,2.0,3.0,89,0.00,,,0.31,weatherlink.com 1.10,2013-09-21 00:29:00,
2013-09-20 20:59:00,68.6,66.0,29.67,West,262,0.0,5.0,90,0.00,,,0.31,weatherlink.com 1.10,2013-09-21 00:59:00,
2013-09-20 21:14:00,68.3,66.0,29.67,WSW,243,2.0,5.0,91,0.00,,,0.31,weatherlink.com 1.10,2013-09-21 01:14:00,
2013-09-20 21:29:00,68.2,66.0,29.68,SW,236,2.0,5.0,91,0.00,,,0.31,weatherlink.com 1.10,2013-09-21 01:29:00,
2013-09-20 21:44:00,68.1,65.0,29.68,WSW,249,4.0,10.0,90,0.00,,,0.31,weatherlink.com 1.10,2013-09-21 01:44:00,
2013-09-20 21:59:00,67.8,65.0,29.68,WSW,257,1.0,7.0,89,0.00,,,0.31,weatherlink.com 1.10,2013-09-21 01:59:00,
2013-09-20 22:14:00,67.4,65.0,29.68,SW,235,1.0,5.0,90,0.00,,,0.31,weatherlink.com 1.10,2013-09-21 02:14:00,
2013-09-20 22:29:00,66.9,64.0,29.68,SW,233,1.0,2.0,90,0.00,,,0.31,weatherlink.com 1.10,2013-09-21 02:29:00,
2013-09-20 22:44:00,66.6,64.0,29.69,WSW,243,1.0,3.0,91,0.00,,,0.31,weatherlink.com 1.10,2013-09-21 02:44:00,
2013-09-20 22:59:00,66.3,64.0,29.69,SW,232,1.0,2.0,92,0.00,,,0.31,weatherlink.com 1.10,2013-09-21 02:59:00,
2013-09-20 23:14:00,66.0,64.0,29.68,SW,235,1.0,2.0,92,0.00,,,0.31,weatherlink.com 1.10,2013-09-21 03:14:00,
2013-09-20 23:29:00,65.7,64.0,29.68,WSW,240,2.0,2.0,93,0.00,,,0.31,weatherlink.com 1.10,2013-09-21 03:29:00,
2013-09-20 23:44:00,65.5,64.0,29.68,WSW,243,1.0,3.0,93,0.00,,,0.31,weatherlink.com 1.10,2013-09-21 03:44:00,
2013-09-20 23:59:00,65.3,63.0,29.68,WSW,240,2.0,3.0,93,0.00,,,0.31,weatherlink.com 1.10,2013-09-21 03:59:00,